KDAL/DAL METAR and TAF weather

Enter ICAO airport designator
Station Type Date Time Source
KDAL METAR 2020/01/18 04:33 UTC NOAA

KDAL 180433Z 18011G19KT 8SM FEW007 BKN010 OVC016 18/16 A3004 RMK AO2 RAB09E21 P0000 T01830161


Station Type Date Time Source
KDAL Decoded METAR 2020/01/18 04:33 UTC NOAA

DALLAS LOVE FIELD, TX, United States (KDAL) 32-51N 096-51W 158M
Jan 17, 2020 - 11:33 PM EST / 2020.01.18 0433 UTC
Wind: from the S (180 degrees) at 13 MPH (11 KT) gusting to 22 MPH (19 KT):0
Visibility: 8 mile(s):0
Sky conditions: overcast
Precipitation last hour: A trace
Temperature: 64.9 F (18.3 C)
Dew Point: 61.0 F (16.1 C)
Relative Humidity: 86%
Pressure (altimeter): 30.04 in. Hg (1017 hPa)
ob: KDAL 180433Z 18011G19KT 8SM FEW007 BKN010 OVC016 18/16 A3004 RMK AO2 RAB09E21 P0000 T01830161
cycle: 4

Station Type Date Time Source
KDAL TAF 2020/01/18 04:28 UTC NOAA

TAF
AMD KDAL 180425Z 1804/1824 19007KT 5SM BR OVC007
TEMPO 1804/1806 2SM BR
FM180700 21010KT P6SM OVC007
FM181100 33015G25KT P6SM SCT100

Example: see airport list